Terminal Aerodrome Forecast
Issued by NWS Green Bay, WI

Home | Current Version | Previous Version | Text Only | Print | Product List | Glossary On
Versions: 1 2 3 4 5 6 7 8 9 10 11 12 13 14 15 16 17 18 19 20
000
FTUS43 KGRB 161312 AAA
TAFGRB
TAF AMD
KGRB 161312Z 1613/1712 05008KT P6SM SCT012 BKN120
     FM161800 10007KT P6SM SCT120 BKN200
     FM170300 09008KT P6SM VCSH SCT040 BKN080
     FM170600 11008KT 5SM SHRA VCTS BKN030CB
     FM170900 12008G15KT 2SM SHRA BR VCTS OVC015CB=

USA.gov is the U.S. government's official web portal to all federal, state and local government web resources and services.